Pagrindinis puslapis
METAR-TAF:

METAR-TAF

Oro uostai :

Livingston County Spencer J. Hardy Airport

Howell, Mičiganas, Jungtinės Amerikos Valstijos

platuma: 42-37-46N, ilguma: 083-59-03W, Aukštis: 293 m

Dabartinis oras

Ataskaita buvo paskelbta 23 minutes, ne 21:36 UTC
Vėjas 4 kt iš Vakarų/Šiaurės Vakarų
Temperatūra 19°C
Drėgmė 52%
Slėgis 1013 hPa
Matomumas: 16.1 km
Giedras dangus

METAR: KOZW 202136Z AUTO 30004KT 10SM CLR 19/09 A2991 RMK AO2 T01880085

Laikas: 17:59 (21:59 UTC)


TAF: trūkstamas

Orai ataskaitas ir orų prognozės (METAR, TAF).

turimą stotys yra geltonos ir raudonos taškus žemėlapyje.

Perkelti pele per norėdami pamatyti stoties vardą.

Tada spustelėkite, norėdami matyti oro stebėjimo ir prognozės.

Norėdami pakeisti žemėlapį: spustelėkite ant žalios mygtukų su juodo kryžiaus žemyn,; žalią mygtuką su brūkšneliu, jei norite nutolinti; arba žalių rodyklių gretimoms žemėlapius.


METAR-TAF: